Time;durP1;ratioP1;P1;durP2;ratioP2;P2;SDS_P1;SDS_P2;PMS_P1;PMS_P2;Temp;Humidity;BMP_temperature;BMP_pressure;BME280_temperature;BME280_humidity;BME280_pressure;Samples;Min_cycle;Max_cycle;Signal;HPM_P1;HPM_P2
2023/06/24 00:02:02;;;;;;;10.32;6.72;;;15.00;95.90;;;;;;4993284;28;20101;-76
2023/06/24 00:04:28;;;;;;;9.90;6.40;;;14.90;96.00;;;;;;5011881;28;20392;-76
2023/06/24 00:06:56;;;;;;;8.63;6.07;;;14.90;96.10;;;;;;5010913;28;20038;-76
2023/06/24 00:09:21;;;;;;;9.05;6.20;;;14.90;96.10;;;;;;5016610;28;20357;-76
2023/06/24 00:11:47;;;;;;;9.90;6.40;;;14.80;96.40;;;;;;5015394;28;20026;-74
2023/06/24 00:14:15;;;;;;;11.57;7.13;;;14.70;96.50;;;;;;4999015;28;20076;-75
2023/06/24 00:16:43;;;;;;;13.85;6.93;;;14.70;96.70;;;;;;5015342;28;20022;-76
2023/06/24 00:19:08;;;;;;;9.63;6.43;;;14.60;96.80;;;;;;4998111;28;20080;-76
2023/06/24 00:21:36;;;;;;;9.23;6.20;;;14.50;96.90;;;;;;5014531;28;20026;-75
2023/06/24 00:24:05;;;;;;;10.73;7.00;;;14.50;96.80;;;;;;5015270;28;20048;-75
2023/06/24 00:26:31;;;;;;;10.27;7.00;;;14.50;96.80;;;;;;5013752;28;20106;-73
2023/06/24 00:28:58;;;;;;;12.88;6.97;;;14.40;97.10;;;;;;4997963;28;20028;-73
2023/06/24 00:31:23;;;;;;;9.50;6.68;;;14.40;97.10;;;;;;5015392;28;20040;-74
2023/06/24 00:33:49;;;;;;;10.70;7.20;;;14.40;97.00;;;;;;5015242;28;20116;-74
2023/06/24 00:36:15;;;;;;;9.68;6.88;;;14.40;97.10;;;;;;5014572;28;20076;-76
2023/06/24 00:38:40;;;;;;;10.70;7.32;;;14.40;96.90;;;;;;5017238;28;20049;-76
2023/06/24 00:41:07;;;;;;;12.98;7.40;;;14.30;97.10;;;;;;5011516;28;20060;-76
2023/06/24 00:43:33;;;;;;;10.45;7.20;;;14.30;97.20;;;;;;5014757;28;20394;-75
2023/06/24 00:45:59;;;;;;;10.50;6.57;;;14.40;97.20;;;;;;5015725;28;20118;-75
2023/06/24 00:48:24;;;;;;;11.30;6.97;;;14.60;96.90;;;;;;5013729;28;20030;-74
2023/06/24 00:50:51;;;;;;;9.27;6.65;;;14.60;96.80;;;;;;5016842;28;20037;-75
2023/06/24 00:53:17;;;;;;;9.63;6.63;;;14.60;96.80;;;;;;4996719;28;20037;-74
2023/06/24 00:55:45;;;;;;;10.77;6.35;;;14.70;96.70;;;;;;5017471;28;20029;-75
2023/06/24 00:58:15;;;;;;;12.05;7.07;;;14.80;96.50;;;;;;5015926;28;20026;-75
2023/06/24 01:00:57;;;;;;;10.52;6.53;;;14.80;96.50;;;;;;5008504;28;20053;-76
2023/06/24 01:03:25;;;;;;;12.15;6.75;;;14.70;96.60;;;;;;5017363;28;20093;-76
2023/06/24 01:05:53;;;;;;;9.10;6.10;;;14.70;96.60;;;;;;5021839;28;20081;-75
2023/06/24 01:08:22;;;;;;;10.85;7.15;;;14.60;96.70;;;;;;5016710;28;20033;-76
2023/06/24 01:10:49;;;;;;;10.45;6.50;;;14.70;96.60;;;;;;5018152;28;20033;-75
2023/06/24 01:13:15;;;;;;;11.88;6.50;;;14.70;96.50;;;;;;5017863;28;20105;-76
2023/06/24 01:15:41;;;;;;;10.13;6.43;;;14.60;96.50;;;;;;5018057;28;20038;-76
2023/06/24 01:18:31;;;;;;;10.75;6.85;;;14.60;96.60;;;;;;5017024;28;20087;-74
2023/06/24 01:21:08;;;;;;;9.52;6.22;;;14.60;96.70;;;;;;5017647;28;20350;-74
2023/06/24 01:23:46;;;;;;;11.45;6.55;;;14.50;96.70;;;;;;5016530;28;20026;-75
2023/06/24 01:26:30;;;;;;;9.93;6.38;;;14.50;96.70;;;;;;5017029;28;20034;-76
2023/06/24 01:29:44;;;;;;;11.57;5.82;;;14.40;97.10;;;;;;5017215;28;20415;-75
2023/06/24 01:32:38;;;;;;;10.02;6.10;;;14.50;96.80;;;;;;5015428;28;20038;-75
2023/06/24 01:35:20;;;;;;;10.70;6.50;;;14.40;96.90;;;;;;5003586;28;20026;-76
2023/06/24 01:37:51;;;;;;;8.70;6.00;;;14.20;97.20;;;;;;5014402;28;20030;-75
2023/06/24 01:40:26;;;;;;;10.13;6.32;;;14.10;97.10;;;;;;4997234;28;20029;-75
2023/06/24 01:42:53;;;;;;;10.88;6.32;;;14.00;97.10;;;;;;5013974;28;20041;-75
2023/06/24 01:45:49;;;;;;;9.70;6.65;;;13.90;97.20;;;;;;4999318;28;20029;-74
2023/06/24 01:48:27;;;;;;;9.15;6.00;;;13.90;97.20;;;;;;5016147;28;20030;-75
2023/06/24 01:51:03;;;;;;;10.13;6.38;;;13.80;97.20;;;;;;5014668;28;20036;-75
2023/06/24 01:53:31;;;;;;;8.90;6.28;;;13.80;97.20;;;;;;5015530;28;20030;-76
2023/06/24 01:56:00;;;;;;;9.93;5.97;;;13.80;97.30;;;;;;5014198;28;20014;-76
2023/06/24 01:58:26;;;;;;;10.02;6.15;;;13.80;97.30;;;;;;4997659;28;20498;-76
2023/06/24 02:00:53;;;;;;;9.20;6.10;;;13.80;97.30;;;;;;5014787;28;20109;-76
2023/06/24 02:03:20;;;;;;;8.25;4.90;;;13.80;97.20;;;;;;5013865;28;20115;-76
2023/06/24 02:05:47;;;;;;;8.95;5.97;;;13.70;97.30;;;;;;5012926;28;20090;-76
2023/06/24 02:08:14;;;;;;;9.35;5.35;;;13.70;96.90;;;;;;5012802;28;20081;-75
2023/06/24 02:10:41;;;;;;;11.85;6.45;;;13.60;96.90;;;;;;5014655;28;20030;-75
2023/06/24 02:13:09;;;;;;;8.43;6.07;;;13.70;97.50;;;;;;5011954;28;20117;-75
2023/06/24 02:15:38;;;;;;;9.60;6.00;;;13.80;97.30;;;;;;5014466;28;20423;-75
2023/06/24 02:18:05;;;;;;;12.43;6.43;;;13.80;97.50;;;;;;5012518;28;20407;-75
2023/06/24 02:20:32;;;;;;;10.02;5.90;;;13.90;97.60;;;;;;5009857;28;20018;-74
2023/06/24 02:22:59;;;;;;;8.38;5.82;;;14.10;97.30;;;;;;5011020;28;20033;-74
2023/06/24 02:25:26;;;;;;;8.15;5.53;;;14.10;97.20;;;;;;4995369;28;20454;-76
2023/06/24 02:27:54;;;;;;;8.50;5.53;;;14.00;97.20;;;;;;5012909;28;20035;-76
2023/06/24 02:30:24;;;;;;;10.05;5.70;;;14.00;97.30;;;;;;4994377;28;20034;-75
2023/06/24 02:32:49;;;;;;;9.65;5.85;;;13.90;97.30;;;;;;5014126;28;20041;-76
2023/06/24 02:35:15;;;;;;;11.57;6.15;;;13.80;97.20;;;;;;5013183;28;20037;-76
2023/06/24 02:37:41;;;;;;;9.02;5.72;;;13.60;97.20;;;;;;5013131;28;20022;-76
2023/06/24 02:40:08;;;;;;;8.93;5.93;;;13.50;97.10;;;;;;4995892;28;20072;-77
2023/06/24 02:42:33;;;;;;;9.05;5.30;;;13.40;97.20;;;;;;5011669;28;20038;-75
2023/06/24 02:44:59;;;;;;;9.10;5.57;;;13.40;97.00;;;;;;5012953;28;20473;-76
2023/06/24 02:47:26;;;;;;;8.80;6.00;;;13.30;96.60;;;;;;4996156;28;20429;-76
2023/06/24 02:49:52;;;;;;;9.63;6.05;;;13.20;96.40;;;;;;5011303;28;20751;-76
2023/06/24 02:52:18;;;;;;;10.93;6.22;;;13.10;95.80;;;;;;5009199;28;20029;-75
2023/06/24 02:54:44;;;;;;;10.70;6.30;;;12.90;95.30;;;;;;5012319;28;20366;-76
2023/06/24 02:57:10;;;;;;;9.55;6.38;;;12.80;95.20;;;;;;5012908;28;20084;-75
2023/06/24 02:59:37;;;;;;;12.57;6.68;;;12.70;94.80;;;;;;5012832;28;20022;-75
2023/06/24 03:02:04;;;;;;;7.57;6.03;;;12.50;93.90;;;;;;4994695;28;20362;-77
2023/06/24 03:04:30;;;;;;;9.55;6.53;;;12.40;92.50;;;;;;5013648;28;20030;-76
2023/06/24 03:06:57;;;;;;;11.52;6.68;;;12.30;92.30;;;;;;5011669;28;20033;-76
2023/06/24 03:09:23;;;;;;;12.55;7.43;;;12.20;91.90;;;;;;5013183;28;20057;-76
2023/06/24 03:11:48;;;;;;;11.55;6.95;;;12.10;91.40;;;;;;5014454;28;20064;-76
2023/06/24 03:14:14;;;;;;;9.15;6.40;;;12.10;90.70;;;;;;5013282;28;20029;-76
2023/06/24 03:16:40;;;;;;;8.77;6.22;;;12.00;90.30;;;;;;5012470;28;20022;-76
2023/06/24 03:19:06;;;;;;;10.25;6.95;;;12.00;90.20;;;;;;5013920;28;20516;-74
2023/06/24 03:21:31;;;;;;;12.80;6.53;;;12.00;90.10;;;;;;5012427;28;20030;-73
2023/06/24 03:23:58;;;;;;;12.82;7.28;;;12.00;89.60;;;;;;5013995;28;20052;-73
2023/06/24 03:26:31;;;;;;;9.55;6.82;;;11.90;89.40;;;;;;4997481;28;20044;-73
2023/06/24 03:28:56;;;;;;;10.25;6.82;;;11.90;88.80;;;;;;4996868;28;20038;-73
2023/06/24 03:31:23;;;;;;;8.77;6.57;;;11.90;89.30;;;;;;5011633;28;20032;-74
2023/06/24 03:33:48;;;;;;;9.70;6.80;;;11.80;88.50;;;;;;5012182;28;20034;-76
2023/06/24 03:36:14;;;;;;;9.50;6.70;;;11.90;88.30;;;;;;5011886;28;20091;-74
2023/06/24 03:38:40;;;;;;;10.43;6.32;;;11.90;88.00;;;;;;5013357;28;20077;-76
2023/06/24 03:41:06;;;;;;;10.77;6.95;;;12.00;88.50;;;;;;5015207;28;20084;-76
2023/06/24 03:43:31;;;;;;;8.52;5.80;;;12.10;89.60;;;;;;5017163;28;20030;-75
2023/06/24 03:45:57;;;;;;;9.73;6.40;;;12.30;90.90;;;;;;5015827;28;20100;-75
2023/06/24 03:48:23;;;;;;;8.43;6.00;;;12.40;92.20;;;;;;5014055;28;20022;-75
2023/06/24 03:50:49;;;;;;;11.00;6.40;;;12.50;93.60;;;;;;5016122;28;20076;-75
2023/06/24 03:53:15;;;;;;;8.75;5.82;;;12.60;94.80;;;;;;5015338;28;20042;-75
2023/06/24 03:55:40;;;;;;;10.07;6.20;;;12.80;95.20;;;;;;5015816;28;20033;-76
2023/06/24 03:58:06;;;;;;;8.18;5.97;;;12.90;95.20;;;;;;5013726;28;20022;-74
2023/06/24 04:00:31;;;;;;;8.60;5.93;;;12.80;94.80;;;;;;4997000;28;20056;-75
2023/06/24 04:03:01;;;;;;;8.85;5.72;;;12.70;94.30;;;;;;5016411;28;20033;-75
2023/06/24 04:05:26;;;;;;;8.73;5.93;;;12.60;93.80;;;;;;5015515;28;20040;-73
2023/06/24 04:07:53;;;;;;;9.18;6.20;;;12.60;93.50;;;;;;5015449;28;20034;-75
2023/06/24 04:10:19;;;;;;;11.20;6.25;;;12.60;93.20;;;;;;5015042;28;20021;-76
2023/06/24 04:12:45;;;;;;;10.25;6.38;;;12.50;93.30;;;;;;5017289;28;20138;-75
2023/06/24 04:15:11;;;;;;;9.88;6.10;;;12.50;92.70;;;;;;5014230;28;20525;-77
2023/06/24 04:17:37;;;;;;;8.07;5.55;;;12.40;92.70;;;;;;5015386;28;20104;-75
2023/06/24 04:20:06;;;;;;;12.23;6.13;;;12.50;92.60;;;;;;5015857;28;20126;-76
2023/06/24 04:22:32;;;;;;;8.30;5.50;;;12.50;92.60;;;;;;5012853;28;20033;-75
2023/06/24 04:24:57;;;;;;;7.68;5.88;;;12.60;92.80;;;;;;4998278;28;20030;-75
2023/06/24 04:27:23;;;;;;;8.82;5.65;;;12.70;93.80;;;;;;5013443;28;20034;-76
2023/06/24 04:29:48;;;;;;;9.05;6.00;;;12.80;93.80;;;;;;5014693;28;20030;-76
2023/06/24 04:32:14;;;;;;;8.52;5.78;;;12.90;93.70;;;;;;5012458;28;20034;-75
2023/06/24 04:34:40;;;;;;;10.05;6.03;;;12.90;94.10;;;;;;4997551;28;20030;-75
2023/06/24 04:37:05;;;;;;;9.07;5.57;;;13.00;94.70;;;;;;5012033;28;20026;-75
2023/06/24 04:39:31;;;;;;;8.25;5.40;;;13.10;95.10;;;;;;5017207;28;20052;-76
2023/06/24 04:41:56;;;;;;;8.75;5.50;;;13.20;95.10;;;;;;4976813;28;1068759;-76
2023/06/24 04:44:22;;;;;;;9.18;5.47;;;13.30;95.10;;;;;;5016075;28;20037;-76
2023/06/24 04:46:48;;;;;;;8.43;5.45;;;13.30;95.20;;;;;;5013632;28;20041;-76
2023/06/24 04:49:13;;;;;;;9.57;5.10;;;13.40;94.30;;;;;;5001445;28;20903;-75
2023/06/24 04:51:43;;;;;;;6.93;5.10;;;13.40;94.90;;;;;;5015494;28;20026;-76
2023/06/24 04:54:08;;;;;;;9.63;5.80;;;13.40;95.10;;;;;;5014857;28;20052;-76
2023/06/24 04:56:34;;;;;;;9.57;5.72;;;13.40;95.60;;;;;;5015391;28;20419;-76
2023/06/24 04:59:00;;;;;;;10.35;6.32;;;13.50;95.90;;;;;;5015940;28;20053;-76
2023/06/24 05:01:26;;;;;;;8.95;5.22;;;13.60;96.30;;;;;;5016781;28;20018;-75
2023/06/24 05:03:51;;;;;;;10.50;5.82;;;13.70;96.80;;;;;;5017744;28;20419;-76
2023/06/24 05:06:17;;;;;;;8.40;5.35;;;13.80;96.70;;;;;;5012004;28;20045;-76
2023/06/24 05:08:42;;;;;;;7.20;4.88;;;13.90;98.00;;;;;;5000303;28;20033;-76
2023/06/24 05:11:08;;;;;;;9.90;5.60;;;14.10;98.00;;;;;;5016581;28;20034;-76
2023/06/24 05:13:33;;;;;;;10.32;6.60;;;14.30;97.70;;;;;;5016602;28;20037;-76
2023/06/24 05:15:59;;;;;;;9.15;5.22;;;14.50;97.40;;;;;;5018634;28;20046;-75
2023/06/24 05:18:24;;;;;;;8.80;5.03;;;14.60;97.50;;;;;;4999694;28;20052;-76
2023/06/24 05:20:50;;;;;;;6.93;4.55;;;14.60;97.70;;;;;;5017388;28;20315;-76
2023/06/24 05:23:15;;;;;;;7.50;4.80;;;14.70;97.70;;;;;;5013821;28;20127;-76
2023/06/24 05:25:41;;;;;;;6.70;5.10;;;14.80;97.40;;;;;;5016449;28;20018;-76
2023/06/24 05:28:06;;;;;;;8.55;5.00;;;14.90;97.50;;;;;;5014742;28;20053;-76
2023/06/24 05:30:32;;;;;;;7.22;4.70;;;15.00;97.30;;;;;;5024180;28;20044;-76
2023/06/24 05:33:00;;;;;;;9.95;5.78;;;15.10;97.40;;;;;;5015632;28;20100;-76
2023/06/24 05:35:26;;;;;;;8.68;5.22;;;15.20;97.40;;;;;;5013409;28;20088;-75
2023/06/24 05:37:52;;;;;;;7.30;5.20;;;15.40;97.40;;;;;;5012595;28;20034;-76
2023/06/24 05:40:17;;;;;;;7.22;5.00;;;15.50;97.00;;;;;;5013947;28;20030;-76
2023/06/24 05:42:43;;;;;;;7.15;4.70;;;15.60;96.60;;;;;;5014122;28;20465;-76
2023/06/24 05:45:08;;;;;;;9.60;5.47;;;15.90;96.20;;;;;;5012778;28;20053;-76
2023/06/24 05:47:34;;;;;;;7.13;4.60;;;16.00;95.90;;;;;;5013068;28;20045;-76
2023/06/24 05:50:00;;;;;;;6.07;4.47;;;16.20;95.10;;;;;;5014867;28;20040;-76
2023/06/24 05:52:25;;;;;;;7.60;4.55;;;16.40;94.90;;;;;;4996273;28;20053;-76
2023/06/24 05:54:51;;;;;;;6.13;3.90;;;16.60;93.90;;;;;;5013818;28;20371;-76
2023/06/24 05:57:16;;;;;;;7.28;4.28;;;16.70;91.70;;;;;;5014070;28;20406;-76
2023/06/24 05:59:42;;;;;;;6.30;3.88;;;16.90;90.00;;;;;;5009539;28;20033;-76
2023/06/24 06:02:07;;;;;;;7.18;3.95;;;17.10;89.70;;;;;;5014466;28;20423;-76
2023/06/24 06:04:35;;;;;;;6.75;3.92;;;17.30;88.90;;;;;;5013193;28;20037;-76
2023/06/24 06:07:01;;;;;;;9.25;4.45;;;17.40;88.00;;;;;;5010254;28;20033;-75
2023/06/24 06:09:26;;;;;;;5.95;3.67;;;17.60;86.70;;;;;;5016002;28;20026;-75
2023/06/24 06:11:52;;;;;;;6.90;4.25;;;17.70;86.90;;;;;;5014946;28;20029;-76
2023/06/24 06:14:17;;;;;;;6.70;3.80;;;17.80;86.80;;;;;;5014550;28;20041;-75
2023/06/24 06:16:43;;;;;;;9.52;4.47;;;17.90;86.40;;;;;;5009899;28;20133;-75
2023/06/24 06:19:09;;;;;;;6.82;4.20;;;18.00;85.40;;;;;;5013447;28;20030;-76
2023/06/24 06:21:36;;;;;;;5.70;3.78;;;18.00;84.90;;;;;;5012051;28;20018;-75
2023/06/24 06:24:02;;;;;;;6.72;4.00;;;18.10;85.20;;;;;;4998768;28;20434;-74
2023/06/24 06:26:28;;;;;;;6.05;3.85;;;18.30;85.70;;;;;;5012807;28;20033;-74
2023/06/24 06:28:53;;;;;;;7.90;4.00;;;18.40;85.40;;;;;;5015012;28;20037;-75
2023/06/24 06:31:19;;;;;;;6.13;3.65;;;18.40;84.40;;;;;;5010689;28;20102;-75
2023/06/24 06:33:44;;;;;;;5.82;3.35;;;18.50;85.10;;;;;;5011575;28;20315;-76
2023/06/24 06:36:10;;;;;;;6.40;3.55;;;18.50;85.10;;;;;;5011473;28;20097;-75
2023/06/24 06:38:35;;;;;;;7.30;4.10;;;18.70;83.50;;;;;;5009362;28;20018;-76
2023/06/24 06:41:01;;;;;;;6.40;3.55;;;18.90;83.40;;;;;;5009416;28;20077;-76
2023/06/24 06:43:27;;;;;;;6.28;3.80;;;18.90;82.90;;;;;;5015735;28;20419;-76
2023/06/24 06:45:52;;;;;;;7.38;3.35;;;19.00;83.30;;;;;;5012284;28;20045;-76
2023/06/24 06:48:18;;;;;;;6.90;3.97;;;19.20;82.30;;;;;;5008235;28;20037;-75
2023/06/24 06:50:45;;;;;;;5.35;3.60;;;19.30;82.50;;;;;;5010665;28;20038;-75
2023/06/24 06:53:10;;;;;;;6.97;3.95;;;19.40;81.30;;;;;;4995748;28;20033;-76
2023/06/24 06:55:39;;;;;;;6.63;3.90;;;19.50;82.30;;;;;;5012725;28;20038;-76
2023/06/24 06:58:04;;;;;;;7.25;4.03;;;19.60;81.30;;;;;;5013502;28;20025;-75
2023/06/24 07:00:30;;;;;;;6.55;3.92;;;19.70;81.10;;;;;;5013702;28;20026;-75
2023/06/24 07:02:56;;;;;;;6.70;4.07;;;19.70;81.30;;;;;;5010589;28;20048;-73
2023/06/24 07:05:21;;;;;;;7.53;4.40;;;19.80;81.00;;;;;;5012853;28;20034;-73
2023/06/24 07:07:47;;;;;;;7.85;4.38;;;19.80;80.40;;;;;;5015324;28;20426;-74
2023/06/24 07:10:12;;;;;;;6.43;4.10;;;20.00;80.80;;;;;;5014449;28;20100;-74
2023/06/24 07:12:39;;;;;;;6.15;3.60;;;20.00;80.10;;;;;;4996907;28;20029;-73
2023/06/24 07:15:05;;;;;;;6.35;3.97;;;20.00;80.80;;;;;;5016190;28;20395;-73
2023/06/24 07:17:30;;;;;;;6.30;3.85;;;20.20;80.60;;;;;;5016296;28;20109;-73
2023/06/24 07:19:56;;;;;;;7.07;3.92;;;20.40;79.30;;;;;;5016195;28;20295;-73
2023/06/24 07:22:22;;;;;;;6.38;3.95;;;20.50;79.00;;;;;;5015145;28;20022;-73
2023/06/24 07:24:47;;;;;;;7.03;4.10;;;20.90;77.50;;;;;;5016085;28;20037;-73
2023/06/24 07:27:13;;;;;;;7.05;4.55;;;21.60;76.70;;;;;;5015206;28;20052;-73
2023/06/24 07:29:38;;;;;;;7.18;3.92;;;22.40;74.00;;;;;;5016230;28;20049;-73
2023/06/24 07:32:04;;;;;;;6.30;3.92;;;23.30;72.40;;;;;;5016128;28;20022;-73
2023/06/24 07:34:30;;;;;;;5.97;3.92;;;24.20;70.60;;;;;;5016265;28;20092;-73
2023/06/24 07:36:57;;;;;;;7.43;4.53;;;24.20;69.70;;;;;;5015042;28;20105;-73
2023/06/24 07:39:22;;;;;;;5.43;3.47;;;24.20;69.30;;;;;;5016061;28;20117;-74
2023/06/24 07:41:48;;;;;;;7.03;3.67;;;24.50;69.00;;;;;;5014950;28;20201;-74
2023/06/24 07:44:13;;;;;;;7.13;4.22;;;25.00;68.00;;;;;;5013855;28;20069;-73
2023/06/24 07:46:39;;;;;;;5.75;3.38;;;25.00;68.40;;;;;;5016169;28;20296;-73
2023/06/24 07:49:04;;;;;;;7.35;4.35;;;25.20;68.20;;;;;;5015882;28;20026;-73
2023/06/24 07:51:30;;;;;;;6.40;4.18;;;25.40;66.40;;;;;;4996803;28;20030;-73
2023/06/24 07:53:55;;;;;;;5.72;3.85;;;25.40;67.40;;;;;;5015824;28;20033;-73
2023/06/24 07:56:21;;;;;;;6.53;3.70;;;25.40;66.40;;;;;;5015795;28;20033;-73
2023/06/24 07:58:46;;;;;;;6.93;3.92;;;25.70;67.90;;;;;;5015227;28;20030;-73
2023/06/24 08:01:12;;;;;;;5.30;3.75;;;26.20;67.20;;;;;;5015845;28;20077;-72
2023/06/24 08:03:37;;;;;;;5.85;3.65;;;26.40;65.10;;;;;;5015951;28;20052;-72
2023/06/24 08:06:04;;;;;;;6.30;3.60;;;26.20;65.70;;;;;;5015175;28;20052;-73
2023/06/24 08:08:29;;;;;;;7.50;4.00;;;26.90;65.30;;;;;;5015890;28;20040;-72
2023/06/24 08:11:04;;;;;;;7.07;4.50;;;27.30;64.10;;;;;;5015792;28;20030;-74
2023/06/24 08:13:29;;;;;;;5.97;4.03;;;27.70;63.30;;;;;;4997338;28;20428;-74
2023/06/24 08:15:58;;;;;;;5.90;4.05;;;27.40;63.10;;;;;;5015234;28;20068;-74
2023/06/24 08:18:24;;;;;;;6.25;3.55;;;26.70;64.40;;;;;;5014626;28;20026;-76
2023/06/24 08:20:49;;;;;;;6.38;3.80;;;27.10;65.60;;;;;;5015649;28;20124;-73
2023/06/24 08:23:15;;;;;;;6.28;3.25;;;27.40;62.70;;;;;;5014549;28;20025;-73
2023/06/24 08:25:41;;;;;;;5.03;3.58;;;27.00;65.10;;;;;;5015774;28;20030;-74
2023/06/24 08:28:06;;;;;;;7.50;4.00;;;27.60;62.20;;;;;;5016662;28;20022;-73
2023/06/24 08:30:32;;;;;;;5.20;3.40;;;28.60;62.50;;;;;;5019282;28;20022;-73
2023/06/24 08:32:58;;;;;;;7.55;3.58;;;29.00;60.20;;;;;;5019052;28;20025;-73
2023/06/24 08:35:24;;;;;;;5.93;3.53;;;29.60;59.60;;;;;;5019223;28;20084;-74
2023/06/24 08:37:49;;;;;;;5.60;3.88;;;29.80;59.10;;;;;;5017801;28;20033;-73
2023/06/24 08:40:15;;;;;;;6.70;3.50;;;28.90;59.60;;;;;;5001674;28;20101;-73
2023/06/24 08:42:40;;;;;;;5.03;3.40;;;27.70;63.60;;;;;;5017980;28;20054;-73
2023/06/24 08:45:06;;;;;;;7.55;3.50;;;27.80;62.70;;;;;;5018788;28;20060;-74
2023/06/24 08:47:33;;;;;;;6.55;3.53;;;28.20;62.30;;;;;;5019045;28;20064;-73
2023/06/24 08:50:04;;;;;;;10.23;4.03;;;28.60;60.80;;;;;;5018750;28;20041;-73
2023/06/24 08:52:34;;;;;;;5.75;3.80;;;28.70;59.50;;;;;;5017506;28;20018;-73
2023/06/24 08:55:01;;;;;;;13.30;4.15;;;29.30;59.20;;;;;;5018786;28;20042;-73
2023/06/24 08:57:27;;;;;;;16.50;4.15;;;29.50;58.60;;;;;;5017715;28;20031;-73
2023/06/24 08:59:53;;;;;;;11.93;4.47;;;29.30;59.00;;;;;;5018071;28;20034;-73
2023/06/24 09:02:19;;;;;;;5.95;3.60;;;29.10;59.20;;;;;;5017738;28;20073;-73
2023/06/24 09:04:45;;;;;;;9.93;4.10;;;28.70;58.70;;;;;;5018713;28;20026;-73
2023/06/24 09:07:11;;;;;;;24.73;6.30;;;27.20;61.10;;;;;;5017432;28;20026;-73
2023/06/24 09:09:44;;;;;;;24.90;5.43;;;25.80;65.20;;;;;;5018569;28;20037;-73
2023/06/24 09:12:14;;;;;;;7.47;4.10;;;25.10;66.70;;;;;;5018542;28;20322;-73
2023/06/24 09:14:40;;;;;;;37.42;7.10;;;24.80;68.10;;;;;;5018286;28;20025;-73
2023/06/24 09:17:06;;;;;;;7.18;3.80;;;25.70;66.30;;;;;;5017727;28;20030;-73
2023/06/24 09:19:36;;;;;;;8.88;4.05;;;27.00;62.00;;;;;;4999956;28;20418;-74
2023/06/24 09:22:07;;;;;;;9.88;3.40;;;28.10;60.60;;;;;;5014976;28;20061;-73
2023/06/24 09:24:33;;;;;;;7.88;3.50;;;29.40;59.20;;;;;;5017550;28;20061;-73
2023/06/24 09:26:59;;;;;;;6.53;3.25;;;30.60;56.10;;;;;;5018296;28;20044;-74
2023/06/24 09:29:31;;;;;;;5.82;3.35;;;31.40;54.50;;;;;;5018132;28;20030;-74
2023/06/24 09:31:58;;;;;;;7.45;3.83;;;31.40;54.50;;;;;;5016996;28;20109;-73
2023/06/24 09:34:28;;;;;;;4.70;3.20;;;31.20;55.00;;;;;;5017134;28;20072;-73
2023/06/24 09:36:56;;;;;;;6.72;3.83;;;30.30;54.90;;;;;;5013556;28;20033;-73
2023/06/24 09:39:28;;;;;;;6.03;4.00;;;28.90;57.70;;;;;;5016686;28;20422;-73
2023/06/24 09:41:56;;;;;;;5.97;3.80;;;26.90;59.40;;;;;;5017663;28;20437;-73
2023/06/24 09:44:22;;;;;;;6.22;3.47;;;26.00;64.30;;;;;;5017770;28;20028;-74
2023/06/24 09:46:48;;;;;;;5.13;3.45;;;25.70;62.90;;;;;;5017847;28;20033;-73
2023/06/24 09:49:14;;;;;;;5.82;3.85;;;25.80;63.00;;;;;;5017749;28;20048;-73
2023/06/24 09:51:47;;;;;;;6.75;3.38;;;25.70;63.20;;;;;;5016623;28;20045;-73
2023/06/24 09:54:15;;;;;;;7.97;3.60;;;26.10;63.50;;;;;;5017017;28;20126;-73
2023/06/24 09:56:47;;;;;;;5.88;3.22;;;27.30;59.70;;;;;;5017582;28;20399;-74
2023/06/24 09:59:14;;;;;;;5.50;3.42;;;27.90;60.40;;;;;;5017517;28;20022;-73
2023/06/24 10:01:43;;;;;;;5.15;3.10;;;28.50;56.80;;;;;;5016204;28;20029;-73
2023/06/24 10:04:10;;;;;;;5.13;3.17;;;29.50;55.50;;;;;;5015518;28;20079;-74
2023/06/24 10:06:36;;;;;;;6.95;3.10;;;29.70;56.20;;;;;;5015416;28;20053;-73
2023/06/24 10:09:02;;;;;;;5.47;3.20;;;30.30;56.90;;;;;;5017288;28;20371;-74
2023/06/24 10:11:28;;;;;;;4.65;2.95;;;29.70;55.30;;;;;;5017454;28;20030;-74
2023/06/24 10:13:54;;;;;;;5.70;3.35;;;28.80;57.50;;;;;;4999900;28;20022;-73
2023/06/24 10:16:20;;;;;;;6.65;3.53;;;28.40;57.80;;;;;;5017168;28;20022;-74
2023/06/24 10:18:46;;;;;;;5.82;3.40;;;28.10;59.50;;;;;;5017259;28;20045;-73
2023/06/24 10:21:14;;;;;;;4.90;3.00;;;28.60;59.30;;;;;;5015007;28;20032;-74
2023/06/24 10:23:55;;;;;;;6.05;2.90;;;29.00;57.30;;;;;;5017181;28;20044;-74
2023/06/24 10:26:29;;;;;;;5.10;2.92;;;30.20;56.70;;;;;;5017070;28;20033;-74
2023/06/24 10:29:07;;;;;;;5.47;3.15;;;30.30;54.00;;;;;;5016984;28;20029;-73
2023/06/24 10:31:47;;;;;;;6.28;3.60;;;28.70;56.40;;;;;;4999542;28;20033;-73
2023/06/24 10:34:32;;;;;;;6.18;3.20;;;27.20;57.60;;;;;;5016497;28;20021;-74
2023/06/24 10:37:18;;;;;;;5.70;3.38;;;26.40;59.40;;;;;;4978811;28;20419;-73
2023/06/24 10:39:49;;;;;;;5.20;3.35;;;25.80;60.70;;;;;;4997248;28;20038;-73
2023/06/24 10:42:26;;;;;;;5.57;3.70;;;26.10;62.60;;;;;;4997142;28;20431;-73
2023/06/24 10:44:53;;;;;;;6.03;3.40;;;25.90;60.50;;;;;;4997161;28;20041;-73
2023/06/24 10:47:21;;;;;;;8.20;3.65;;;25.60;61.00;;;;;;4996886;28;20029;-73
2023/06/24 10:49:46;;;;;;;7.07;3.50;;;25.40;62.30;;;;;;5002546;28;20033;-73
2023/06/24 10:52:13;;;;;;;5.78;3.38;;;25.40;62.80;;;;;;5014870;28;20087;-72
2023/06/24 10:54:41;;;;;;;5.25;3.22;;;25.70;60.50;;;;;;5016585;28;20029;-72
2023/06/24 10:57:11;;;;;;;4.50;3.03;;;27.00;60.80;;;;;;5016808;28;20117;-72
2023/06/24 10:59:41;;;;;;;5.15;3.03;;;28.20;59.60;;;;;;5015531;28;20038;-72
2023/06/24 11:02:09;;;;;;;5.03;3.42;;;28.80;57.50;;;;;;5016381;28;20014;-73
2023/06/24 11:04:56;;;;;;;6.25;3.28;;;27.20;57.50;;;;;;5015487;28;20418;-73
2023/06/24 11:07:26;;;;;;;4.45;2.88;;;26.80;60.80;;;;;;5015371;28;20030;-73
2023/06/24 11:09:54;;;;;;;9.07;3.28;;;27.30;57.70;;;;;;5016347;28;20026;-73
2023/06/24 11:12:26;;;;;;;8.80;3.10;;;28.20;56.30;;;;;;5016359;28;20030;-73
2023/06/24 11:14:55;;;;;;;6.00;3.00;;;28.50;55.10;;;;;;5016332;28;20083;-74
2023/06/24 11:17:21;;;;;;;5.93;3.05;;;27.80;56.30;;;;;;5015244;28;20146;-73
2023/06/24 11:19:46;;;;;;;5.40;3.35;;;26.70;59.00;;;;;;5016402;28;20137;-73
2023/06/24 11:22:12;;;;;;;6.18;3.85;;;25.90;59.80;;;;;;5013986;28;20112;-74
2023/06/24 11:24:39;;;;;;;7.35;3.55;;;25.40;60.50;;;;;;5016264;28;20030;-73
2023/06/24 11:27:05;;;;;;;7.53;3.90;;;25.00;61.20;;;;;;5016085;28;20339;-73
2023/06/24 11:29:32;;;;;;;4.78;3.08;;;25.00;61.90;;;;;;5016072;28;20037;-73
2023/06/24 11:31:57;;;;;;;5.45;3.45;;;25.20;61.80;;;;;;5016278;28;20323;-73
2023/06/24 11:34:23;;;;;;;5.47;3.42;;;25.30;62.60;;;;;;5016027;28;20026;-73
2023/06/24 11:36:49;;;;;;;23.30;5.10;;;25.30;61.50;;;;;;5014107;28;20025;-73
2023/06/24 11:39:25;;;;;;;5.28;3.40;;;25.50;62.50;;;;;;5016133;28;20030;-73
2023/06/24 11:41:52;;;;;;;7.28;3.78;;;25.60;62.10;;;;;;5015848;28;20052;-73
2023/06/24 11:44:23;;;;;;;5.75;3.50;;;25.90;61.30;;;;;;5016101;28;20040;-73
2023/06/24 11:46:49;;;;;;;5.57;3.50;;;27.00;61.30;;;;;;5016027;28;20034;-73
2023/06/24 11:49:15;;;;;;;5.38;3.20;;;28.00;58.80;;;;;;5015991;28;20148;-73
2023/06/24 11:51:48;;;;;;;6.55;3.08;;;29.00;56.70;;;;;;5013097;28;20058;-74
2023/06/24 11:54:16;;;;;;;5.75;3.20;;;29.50;53.50;;;;;;5015746;28;20053;-73
2023/06/24 11:56:43;;;;;;;5.95;3.50;;;28.60;54.80;;;;;;4998106;28;20419;-74
2023/06/24 11:59:35;;;;;;;7.05;3.80;;;27.20;56.80;;;;;;5015378;28;20041;-74
2023/06/24 12:02:03;;;;;;;6.68;3.47;;;26.20;59.40;;;;;;5011631;28;20042;-73
2023/06/24 12:04:32;;;;;;;6.80;3.25;;;26.70;57.80;;;;;;5019489;28;20371;-73
2023/06/24 12:06:59;;;;;;;6.47;2.95;;;28.00;58.40;;;;;;5016944;28;20021;-74
2023/06/24 12:09:25;;;;;;;6.18;3.03;;;29.10;56.80;;;;;;5016399;28;20041;-74
2023/06/24 12:11:52;;;;;;;5.53;3.20;;;30.00;54.30;;;;;;5010459;28;20545;-74
2023/06/24 12:14:18;;;;;;;5.10;2.97;;;30.60;53.90;;;;;;4999835;28;20144;-74
2023/06/24 12:16:44;;;;;;;5.03;2.88;;;30.90;52.60;;;;;;4999809;28;20161;-74
2023/06/24 12:19:10;;;;;;;6.68;3.53;;;30.90;52.50;;;;;;4999869;28;20394;-74
2023/06/24 12:21:35;;;;;;;5.47;3.22;;;30.60;53.30;;;;;;4981387;28;20034;-73
2023/06/24 12:24:02;;;;;;;5.45;3.00;;;29.70;53.50;;;;;;4999802;28;20027;-74
2023/06/24 12:26:27;;;;;;;6.88;3.05;;;29.10;55.00;;;;;;5015022;28;20366;-74
2023/06/24 12:28:57;;;;;;;10.00;3.50;;;29.70;55.20;;;;;;5019006;28;20040;-73
2023/06/24 12:31:25;;;;;;;5.65;3.03;;;30.00;52.00;;;;;;5019391;28;20022;-73
2023/06/24 12:33:52;;;;;;;5.63;3.13;;;30.10;53.80;;;;;;5018775;28;20041;-74
2023/06/24 12:36:18;;;;;;;6.35;3.63;;;29.30;52.60;;;;;;5017961;28;20330;-74
2023/06/24 12:38:44;;;;;;;5.22;3.20;;;30.10;53.70;;;;;;5019227;28;20092;-74
2023/06/24 12:41:09;;;;;;;4.18;2.63;;;31.30;52.50;;;;;;5017822;28;20046;-74
2023/06/24 12:43:35;;;;;;;5.22;2.70;;;31.90;49.90;;;;;;5001765;28;20341;-74
2023/06/24 12:46:01;;;;;;;7.40;3.17;;;31.60;51.10;;;;;;5019009;28;20022;-73
2023/06/24 12:48:26;;;;;;;7.85;3.35;;;31.70;49.80;;;;;;5018745;28;20026;-74